Time;durP1;ratioP1;P1;durP2;ratioP2;P2;SDS_P1;SDS_P2;PMS_P1;PMS_P2;Temp;Humidity;BMP_temperature;BMP_pressure;BME280_temperature;BME280_humidity;BME280_pressure;Samples;Min_cycle;Max_cycle;Signal;HPM_P1;HPM_P2
2022/05/22 00:00:12;;;;;;;7.63;1.67;;;;;;;8.89;52.55;101891.41;4971489;28;20046;-78
2022/05/22 00:02:42;;;;;;;4.65;1.02;;;;;;;8.65;52.80;101893.50;4967324;28;20094;-80
2022/05/22 00:05:10;;;;;;;3.15;1.38;;;;;;;8.53;53.33;101878.91;4955525;28;20195;-78
2022/05/22 00:07:36;;;;;;;3.83;1.23;;;;;;;8.50;53.10;101884.19;4943979;28;20061;-80
2022/05/22 00:10:03;;;;;;;4.00;1.00;;;;;;;8.66;52.99;101878.72;4956429;28;20038;-80
2022/05/22 00:12:28;;;;;;;1.60;1.00;;;;;;;8.61;52.96;101871.00;4957542;28;20039;-80
2022/05/22 00:14:54;;;;;;;9.65;1.38;;;;;;;8.56;53.36;101873.66;4941471;28;20034;-80
2022/05/22 00:17:19;;;;;;;8.27;1.55;;;;;;;8.55;53.24;101866.72;4961114;28;20038;-81
2022/05/22 00:19:45;;;;;;;4.63;1.08;;;;;;;8.48;53.56;101865.09;4967821;28;20149;-78
2022/05/22 00:22:11;;;;;;;3.17;1.25;;;;;;;8.62;53.55;101861.41;4962039;28;20077;-80
2022/05/22 00:24:36;;;;;;;6.15;1.05;;;;;;;8.67;52.92;101864.81;4957273;28;20030;-81
2022/05/22 00:27:03;;;;;;;4.78;0.75;;;;;;;8.69;52.69;101863.03;4969388;28;20030;-78
2022/05/22 00:29:33;;;;;;;3.43;0.93;;;;;;;8.70;52.70;101864.78;4955126;28;20038;-80
2022/05/22 00:31:59;;;;;;;3.53;0.98;;;;;;;8.57;52.76;101854.53;4969225;28;20433;-80
2022/05/22 00:34:25;;;;;;;2.25;1.13;;;;;;;8.51;52.69;101856.38;4970895;28;20493;-78
2022/05/22 00:36:51;;;;;;;9.07;1.30;;;;;;;8.46;52.99;101859.03;4958552;28;20047;-80
2022/05/22 00:39:17;;;;;;;6.78;1.45;;;;;;;8.30;52.91;101853.22;4938011;28;20038;-82
2022/05/22 00:41:49;;;;;;;9.55;1.85;;;;;;;8.27;53.07;101863.69;4960600;28;20173;-77
2022/05/22 00:44:15;;;;;;;5.75;1.40;;;;;;;8.23;53.28;101853.34;4936217;28;20516;-76
2022/05/22 00:46:40;;;;;;;6.10;1.55;;;;;;;8.22;53.43;101854.22;4953611;28;20039;-75
2022/05/22 00:49:14;;;;;;;2.40;0.98;;;;;;;8.21;53.48;101852.50;4955285;28;20158;-79
2022/05/22 00:52:11;;;;;;;2.00;0.70;;;;;;;8.20;53.20;101858.56;4959092;28;20424;-80
2022/05/22 00:54:46;;;;;;;2.30;1.23;;;;;;;8.24;53.38;101862.88;4948028;28;20916;-80
2022/05/22 00:57:19;;;;;;;4.93;1.38;;;;;;;8.24;53.12;101855.03;4966968;28;20117;-80
2022/05/22 00:59:50;;;;;;;9.00;1.90;;;;;;;8.09;53.36;101854.41;4968274;28;20034;-75
2022/05/22 01:02:17;;;;;;;4.32;1.10;;;;;;;8.01;53.44;101847.56;4934704;28;20034;-82
2022/05/22 01:04:44;;;;;;;7.45;1.35;;;;;;;8.05;53.49;101850.09;4968908;28;20039;-77
2022/05/22 01:07:11;;;;;;;8.13;1.85;;;;;;;8.04;53.37;101848.38;4943186;28;20054;-80
2022/05/22 01:09:37;;;;;;;7.32;1.38;;;;;;;7.94;53.79;101841.59;4962557;28;20039;-82
2022/05/22 01:12:22;;;;;;;2.63;1.23;;;;;;;7.93;53.68;101845.06;4954035;28;20630;-76
2022/05/22 01:14:52;;;;;;;5.38;1.65;;;;;;;7.85;54.03;101850.38;4936191;28;20723;-78
2022/05/22 01:17:18;;;;;;;6.82;2.33;;;;;;;7.90;53.63;101840.75;4940749;28;20035;-81
2022/05/22 01:19:58;;;;;;;6.22;1.48;;;;;;;7.88;53.87;101833.84;4955214;28;20038;-79
2022/05/22 01:22:26;;;;;;;5.15;1.35;;;;;;;7.85;53.96;101836.50;4953261;28;20027;-78
2022/05/22 01:24:53;;;;;;;6.03;1.30;;;;;;;7.79;53.59;101828.78;4951193;28;20174;-79
2022/05/22 01:27:20;;;;;;;3.90;1.13;;;;;;;7.62;54.09;101829.81;4915507;28;20027;-81
2022/05/22 01:30:01;;;;;;;4.15;2.03;;;;;;;7.70;54.09;101828.00;4956565;28;20113;-78
2022/05/22 01:32:27;;;;;;;5.43;1.33;;;;;;;7.73;54.02;101822.78;4959656;28;20063;-76
2022/05/22 01:34:53;;;;;;;3.28;1.25;;;;;;;7.73;54.06;101821.88;4955383;28;20291;-80
2022/05/22 01:37:21;;;;;;;2.63;1.40;;;;;;;7.69;53.89;101821.09;4956725;28;20043;-80
2022/05/22 01:39:46;;;;;;;6.78;1.33;;;;;;;7.70;53.90;101822.78;4958987;28;20117;-78
2022/05/22 01:42:12;;;;;;;3.95;1.38;;;;;;;7.73;53.94;101827.09;4958360;28;20022;-81
2022/05/22 01:44:37;;;;;;;3.33;1.60;;;;;;;7.79;53.84;101831.38;4954051;28;20078;-79
2022/05/22 01:47:04;;;;;;;4.70;1.15;;;;;;;7.71;54.13;101834.06;4938035;28;20035;-78
2022/05/22 01:49:30;;;;;;;3.63;1.40;;;;;;;7.76;53.79;101837.47;4952845;28;20038;-80
2022/05/22 01:51:55;;;;;;;5.97;1.50;;;;;;;7.61;54.21;101828.13;4943474;28;20085;-79
2022/05/22 01:54:21;;;;;;;2.67;1.05;;;;;;;7.66;54.07;101838.47;4953988;28;20102;-81
2022/05/22 01:56:47;;;;;;;4.10;1.15;;;;;;;7.59;54.45;101842.88;4954165;28;20030;-79
2022/05/22 01:59:13;;;;;;;4.07;1.60;;;;;;;7.57;54.43;101842.03;4963908;28;20043;-81
2022/05/22 02:01:54;;;;;;;4.18;1.15;;;;;;;7.43;54.45;101843.91;4957134;28;20718;-80
2022/05/22 02:04:20;;;;;;;4.72;1.30;;;;;;;7.30;54.93;101849.25;4958463;28;20084;-76
2022/05/22 02:09:31;;;;;;;4.93;1.90;;;;;;;7.42;54.98;101853.47;4966255;28;20047;-78
2022/05/22 02:11:56;;;;;;;5.78;1.42;;;;;;;7.43;54.40;101849.13;4958587;28;20561;-78
2022/05/22 02:14:22;;;;;;;6.40;2.15;;;;;;;7.37;55.05;101849.19;4953797;28;20027;-80
2022/05/22 02:16:57;;;;;;;9.68;1.50;;;;;;;7.31;54.86;101845.78;4952595;28;21640;-77
2022/05/22 02:19:22;;;;;;;6.53;1.70;;;;;;;7.26;55.17;101844.94;4954291;28;20164;-79
2022/05/22 02:21:48;;;;;;;4.75;1.20;;;;;;;7.25;55.12;101843.22;4958900;28;20045;-79
2022/05/22 02:24:14;;;;;;;6.68;1.67;;;;;;;7.31;55.23;101840.56;4965770;28;20051;-76
2022/05/22 02:26:41;;;;;;;3.97;1.42;;;;;;;7.32;55.10;101847.47;4969059;28;20093;-76
2022/05/22 02:29:11;;;;;;;4.55;1.33;;;;;;;7.35;54.73;101835.34;4941319;28;20035;-75
2022/05/22 02:31:37;;;;;;;5.10;1.58;;;;;;;7.34;54.84;101829.28;4963036;28;20035;-79
2022/05/22 02:34:03;;;;;;;4.40;1.30;;;;;;;7.30;54.99;101833.63;4921691;28;20049;-77
2022/05/22 02:36:29;;;;;;;3.00;1.55;;;;;;;7.39;54.88;101831.81;4965035;28;20027;-76
2022/05/22 02:38:54;;;;;;;5.70;1.50;;;;;;;7.42;54.66;101836.97;4960374;28;20086;-76
2022/05/22 02:41:20;;;;;;;4.97;1.88;;;;;;;7.43;54.40;101839.56;4952806;28;20347;-78
2022/05/22 02:43:53;;;;;;;5.43;1.15;;;;;;;7.35;54.60;101841.38;4947630;28;20065;-76
2022/05/22 02:46:20;;;;;;;4.07;1.27;;;;;;;7.39;54.41;101839.63;4963916;28;20062;-76
2022/05/22 02:48:48;;;;;;;2.05;1.00;;;;;;;7.38;54.23;101832.69;4959417;28;20035;-76
2022/05/22 02:51:18;;;;;;;2.72;1.05;;;;;;;7.31;54.08;101830.19;4964157;28;20034;-76
2022/05/22 02:53:44;;;;;;;3.97;1.85;;;;;;;7.30;54.51;101833.63;4946656;28;20054;-75
2022/05/22 02:56:48;;;;;;;4.85;1.20;;;;;;;7.30;54.53;101828.44;4956818;28;20039;-77
2022/05/22 02:59:34;;;;;;;3.90;1.17;;;;;;;7.22;54.67;101830.28;4965472;28;20039;-77
2022/05/22 03:02:39;;;;;;;3.13;1.67;;;;;;;7.30;54.24;101822.38;4954546;28;20043;-76
2022/05/22 03:05:05;;;;;;;6.05;1.65;;;;;;;7.33;54.16;101812.81;4948920;28;20037;-77
2022/05/22 03:07:30;;;;;;;7.78;2.20;;;;;;;7.18;54.46;101815.59;4941618;28;20632;-77
2022/05/22 03:10:11;;;;;;;4.63;1.50;;;;;;;7.18;54.78;101812.97;4952232;28;20082;-76
2022/05/22 03:12:37;;;;;;;1.50;1.13;;;;;;;7.12;54.97;101819.09;4979217;28;20057;-76
2022/05/22 03:15:07;;;;;;;6.38;2.17;;;;;;;7.23;54.75;101805.97;4976207;28;20034;-77
2022/05/22 03:17:38;;;;;;;4.80;1.60;;;;;;;7.21;54.79;101812.94;4976035;28;20064;-77
2022/05/22 03:20:05;;;;;;;4.20;1.13;;;;;;;7.22;54.72;101806.88;4957966;28;20035;-77
2022/05/22 03:22:34;;;;;;;3.53;1.10;;;;;;;7.27;54.66;101809.44;4962409;28;20038;-78
2022/05/22 03:25:01;;;;;;;4.70;1.33;;;;;;;7.34;54.38;101808.47;4951736;28;20039;-78
2022/05/22 03:27:29;;;;;;;6.82;1.45;;;;;;;7.41;54.48;101804.06;4967544;28;20062;-79
2022/05/22 03:29:54;;;;;;;3.15;1.92;;;;;;;7.38;54.19;101802.34;4977359;28;20027;-78
2022/05/22 03:32:20;;;;;;;4.30;1.77;;;;;;;7.37;54.31;101807.56;4968406;28;20038;-76
2022/05/22 03:34:48;;;;;;;5.30;2.28;;;;;;;7.31;54.41;101811.97;4965633;28;20041;-76
2022/05/22 03:37:14;;;;;;;6.25;1.83;;;;;;;7.50;54.42;101814.34;4943766;28;20954;-76
2022/05/22 03:39:41;;;;;;;4.75;2.85;;;;;;;7.45;54.29;101811.81;4973173;28;20031;-77
2022/05/22 03:42:07;;;;;;;7.57;2.03;;;;;;;7.46;54.08;101813.50;4974368;28;20026;-76
2022/05/22 03:44:35;;;;;;;4.53;1.92;;;;;;;7.41;54.08;101820.53;4976789;28;20043;-76
2022/05/22 03:47:02;;;;;;;5.57;1.77;;;;;;;7.48;54.26;101813.50;4964554;28;20700;-78
2022/05/22 03:49:35;;;;;;;5.57;2.25;;;;;;;7.54;54.02;101805.63;4961702;28;20049;-76
2022/05/22 03:52:01;;;;;;;7.38;2.65;;;;;;;7.56;54.01;101805.63;4973506;28;20156;-76
2022/05/22 03:54:28;;;;;;;3.95;1.95;;;;;;;7.52;54.24;101803.03;4959277;28;20028;-78
2022/05/22 03:56:57;;;;;;;9.40;3.10;;;;;;;7.60;54.17;101810.81;4963162;28;20157;-76
2022/05/22 03:59:26;;;;;;;4.43;2.00;;;;;;;7.73;53.86;101807.16;4959874;28;20045;-78
2022/05/22 04:01:52;;;;;;;3.95;1.83;;;;;;;7.66;53.41;101800.28;4966507;28;20690;-77
2022/05/22 04:04:19;;;;;;;4.88;1.85;;;;;;;7.57;53.62;101805.63;4945111;28;20081;-79
2022/05/22 04:06:44;;;;;;;3.92;1.88;;;;;;;7.56;53.65;101801.31;4966443;28;20433;-79
2022/05/22 04:09:14;;;;;;;3.33;1.33;;;;;;;7.60;54.12;101800.41;4957762;28;20493;-77
2022/05/22 04:12:08;;;;;;;2.58;1.85;;;;;;;7.68;54.11;101792.47;4964744;28;20038;-77
2022/05/22 04:14:35;;;;;;;5.13;1.50;;;;;;;7.71;53.63;101785.50;4958975;28;20760;-77
2022/05/22 04:17:06;;;;;;;5.70;1.23;;;;;;;7.76;53.74;101782.84;4948268;28;20383;-78
2022/05/22 04:19:33;;;;;;;3.92;1.70;;;;;;;7.76;53.50;101776.75;4956732;28;20101;-77
2022/05/22 04:21:59;;;;;;;10.32;2.28;;;;;;;7.59;53.65;101780.44;4962420;28;20500;-78
2022/05/22 04:27:10;;;;;;;6.57;1.90;;;;;;;7.47;53.64;101772.78;4974690;28;20085;-78
2022/05/22 04:29:37;;;;;;;6.97;2.22;;;;;;;7.46;53.92;101776.25;4964661;28;20039;-78
2022/05/22 04:32:03;;;;;;;4.95;1.65;;;;;;;7.46;53.90;101786.66;4962186;28;20027;-77
2022/05/22 04:34:36;;;;;;;5.88;1.75;;;;;;;7.58;54.02;101781.34;4970974;28;20035;-78
2022/05/22 04:37:09;;;;;;;3.60;2.05;;;;;;;7.52;53.64;101778.78;4955668;28;20039;-75
2022/05/22 04:39:46;;;;;;;3.35;2.15;;;;;;;7.59;53.88;101782.19;4959168;28;20034;-76
2022/05/22 04:42:13;;;;;;;3.00;1.50;;;;;;;7.67;54.02;101781.22;4944869;28;20026;-78
2022/05/22 04:44:38;;;;;;;2.38;1.67;;;;;;;7.80;53.83;101783.63;4947136;28;20046;-77
2022/05/22 04:47:22;;;;;;;4.50;1.83;;;;;;;7.99;53.78;101790.31;4956466;28;20576;-77
2022/05/22 04:50:12;;;;;;;4.65;1.38;;;;;;;8.23;53.77;101796.91;4961507;28;20035;-77
2022/05/22 04:52:58;;;;;;;8.55;2.80;;;;;;;9.05;52.20;101787.69;4935052;28;20054;-77
2022/05/22 04:55:24;;;;;;;7.43;2.08;;;;;;;10.29;47.98;101779.81;4956954;28;20039;-78
2022/05/22 04:57:50;;;;;;;5.63;2.00;;;;;;;12.40;44.75;101779.94;4941493;28;20244;-78
2022/05/22 05:00:16;;;;;;;7.47;1.58;;;;;;;13.92;40.59;101770.97;4943633;28;20024;-76
2022/05/22 05:02:52;;;;;;;4.68;1.27;;;;;;;15.04;39.90;101784.69;4972552;28;20409;-78
2022/05/22 05:05:19;;;;;;;2.92;1.42;;;;;;;16.15;36.64;101784.81;4943732;28;20058;-77
2022/05/22 05:07:44;;;;;;;4.18;2.03;;;;;;;16.59;35.32;101779.09;4969550;28;20039;-77
2022/05/22 05:10:28;;;;;;;3.90;1.10;;;;;;;14.94;38.13;101780.72;4959051;28;20085;-79
2022/05/22 05:13:14;;;;;;;5.95;1.10;;;;;;;13.72;40.50;101780.47;4958784;28;20039;-76
2022/05/22 05:15:40;;;;;;;5.93;1.75;;;;;;;14.91;37.51;101786.16;4957227;28;20035;-78
2022/05/22 05:18:14;;;;;;;11.48;1.40;;;;;;;15.31;35.70;101781.75;4961015;28;20073;-76
2022/05/22 05:20:45;;;;;;;10.68;1.67;;;;;;;14.13;38.70;101780.59;4956896;28;20074;-79
2022/05/22 05:23:10;;;;;;;4.10;0.90;;;;;;;13.92;39.79;101781.47;4954104;28;20046;-77
2022/05/22 05:25:41;;;;;;;1.23;0.63;;;;;;;15.80;38.51;101779.47;4944566;28;20117;-76
2022/05/22 05:28:07;;;;;;;5.18;1.30;;;;;;;16.66;33.88;101780.50;4939355;28;20261;-78
2022/05/22 05:30:32;;;;;;;4.05;1.05;;;;;;;17.76;33.44;101781.69;4962098;28;20030;-77
2022/05/22 05:32:58;;;;;;;7.40;1.42;;;;;;;18.73;32.24;101780.53;4954646;28;20491;-78
2022/05/22 05:35:43;;;;;;;3.67;1.00;;;;;;;20.07;31.36;101773.81;4956083;28;20049;-77
2022/05/22 05:38:16;;;;;;;3.72;1.05;;;;;;;20.78;29.38;101776.19;4968268;28;20046;-78
2022/05/22 05:40:48;;;;;;;5.28;1.58;;;;;;;21.75;27.21;101776.34;4953898;28;20035;-77
2022/05/22 05:43:17;;;;;;;4.00;0.88;;;;;;;21.67;26.54;101770.75;4956171;28;20031;-77
2022/05/22 05:45:43;;;;;;;5.50;1.77;;;;;;;21.35;27.74;101781.91;4958145;28;20031;-77
2022/05/22 05:48:09;;;;;;;4.93;1.02;;;;;;;22.84;25.74;101772.59;4955833;28;20044;-77
2022/05/22 05:50:44;;;;;;;3.35;0.73;;;;;;;23.71;23.81;101772.75;4964289;28;20023;-77
2022/05/22 05:53:33;;;;;;;6.35;1.20;;;;;;;24.77;23.58;101771.03;4947277;28;20051;-79
2022/05/22 05:56:04;;;;;;;4.38;0.70;;;;;;;25.90;22.40;101772.63;4957393;28;20045;-80
2022/05/22 05:58:43;;;;;;;2.17;0.60;;;;;;;26.21;21.57;101762.63;4956933;28;20098;-77
2022/05/22 06:01:33;;;;;;;3.58;0.80;;;;;;;24.92;23.41;101764.34;4961460;28;20027;-78
2022/05/22 06:04:00;;;;;;;4.22;0.50;;;;;;;25.52;22.80;101766.25;4951712;28;20097;-78
2022/05/22 06:06:27;;;;;;;2.67;1.05;;;;;;;26.40;21.28;101759.06;4956736;28;20035;-79
2022/05/22 06:08:56;;;;;;;2.58;0.65;;;;;;;27.67;19.60;101762.03;4954107;28;20146;-79
2022/05/22 06:11:42;;;;;;;4.03;1.15;;;;;;;28.33;19.20;101753.53;4952016;28;20575;-78
2022/05/22 06:14:23;;;;;;;4.70;0.70;;;;;;;28.75;19.44;101763.53;4968298;28;20038;-79
2022/05/22 06:16:50;;;;;;;2.63;0.55;;;;;;;28.49;18.25;101758.16;4967479;28;20562;-78
2022/05/22 06:19:53;;;;;;;4.50;0.52;;;;;;;28.41;18.13;101770.69;4951391;28;20030;-81
2022/05/22 06:22:08;;;;;;;3.17;0.50;;;;;;;26.77;20.93;101766.31;4950704;28;20081;-79
2022/05/22 06:24:35;;;;;;;3.65;0.38;;;;;;;25.90;22.71;101759.25;4955463;28;20058;-80
2022/05/22 06:27:22;;;;;;;4.88;0.50;;;;;;;26.60;19.97;101760.75;4924086;28;20099;-79
2022/05/22 06:30:08;;;;;;;3.70;0.40;;;;;;;27.04;20.54;101765.47;4953761;28;20042;-78
2022/05/22 06:33:00;;;;;;;4.60;1.05;;;;;;;27.96;19.47;101759.09;4942079;28;20039;-80
2022/05/22 06:35:46;;;;;;;4.88;0.43;;;;;;;28.31;17.19;101760.91;4954795;28;20617;-78
2022/05/22 06:41:39;;;;;;;1.73;0.60;;;;;;;27.90;18.65;101774.00;4958269;28;20081;-78
2022/05/22 06:44:25;;;;;;;6.10;0.50;;;;;;;28.27;17.62;101766.75;4938549;28;20035;-79
2022/05/22 06:47:10;;;;;;;4.75;0.50;;;;;;;29.49;16.93;101760.28;4955596;28;20046;-78
2022/05/22 06:49:55;;;;;;;4.90;0.82;;;;;;;28.40;17.81;101766.34;4963672;28;20193;-78
2022/05/22 06:52:33;;;;;;;5.10;0.60;;;;;;;28.05;17.72;101771.59;4964542;28;20070;-79
2022/05/22 06:55:24;;;;;;;2.75;0.63;;;;;;;25.97;20.07;101768.41;4939447;28;20046;-79
2022/05/22 06:58:08;;;;;;;5.40;0.38;;;;;;;27.18;19.67;101773.06;4969025;28;20066;-77
2022/05/22 07:01:00;;;;;;;2.60;0.40;;;;;;;26.54;18.31;101769.34;4951770;28;20035;-77
2022/05/22 07:03:44;;;;;;;4.93;0.43;;;;;;;27.42;18.53;101772.50;4963381;28;20038;-79
2022/05/22 07:06:28;;;;;;;2.90;0.20;;;;;;;28.25;16.58;101766.91;4956157;28;20105;-78
2022/05/22 07:09:25;;;;;;;5.32;0.77;;;;;;;28.10;16.64;101774.66;4944726;28;20145;-77
2022/05/22 07:12:18;;;;;;;4.13;0.63;;;;;;;27.73;16.31;101775.69;4965968;28;20119;-77
2022/05/22 07:14:56;;;;;;;3.05;0.52;;;;;;;27.99;17.68;101771.38;4963091;28;20390;-79
2022/05/22 07:17:40;;;;;;;3.95;0.40;;;;;;;28.32;16.26;101762.59;4954989;28;20094;-75
2022/05/22 07:20:24;;;;;;;3.30;0.82;;;;;;;28.45;17.53;101764.84;4969616;28;20126;-77
2022/05/22 07:23:09;;;;;;;0.80;0.30;;;;;;;28.86;16.35;101762.41;4961820;28;21196;-78
2022/05/22 07:26:06;;;;;;;3.63;0.25;;;;;;;28.55;15.83;101764.75;4962342;28;20599;-77
2022/05/22 07:28:45;;;;;;;3.60;0.40;;;;;;;29.43;14.87;101761.78;4962906;28;20074;-78
2022/05/22 07:31:32;;;;;;;3.53;0.28;;;;;;;28.94;14.44;101761.59;4945050;28;20101;-76
2022/05/22 07:34:18;;;;;;;5.78;0.50;;;;;;;29.36;15.96;101761.59;4960176;28;20058;-78
2022/05/22 07:37:13;;;;;;;3.97;0.35;;;;;;;29.12;13.85;101764.22;4907265;28;20036;-78
2022/05/22 07:40:01;;;;;;;5.35;0.85;;;;;;;28.35;15.46;101753.38;4952545;28;20086;-80
2022/05/22 07:42:37;;;;;;;1.77;0.30;;;;;;;27.96;16.05;101758.25;4945403;28;20525;-76
2022/05/22 07:45:18;;;;;;;2.33;0.30;;;;;;;29.10;15.13;101750.91;4943874;28;20057;-79
2022/05/22 07:48:00;;;;;;;3.00;0.40;;;;;;;28.83;15.12;101749.28;4961518;28;20467;-79
2022/05/22 07:51:01;;;;;;;3.40;0.52;;;;;;;30.06;14.20;101751.38;4948785;28;20501;-77
2022/05/22 07:53:47;;;;;;;3.40;0.50;;;;;;;29.19;14.96;101748.25;4972636;28;20047;-79
2022/05/22 07:56:34;;;;;;;3.80;1.02;;;;;;;29.15;15.03;101753.13;4967001;28;20031;-79
2022/05/22 07:59:37;;;;;;;3.22;0.20;;;;;;;29.05;15.60;101753.22;4951783;28;20042;-78
2022/05/22 08:02:15;;;;;;;2.70;0.30;;;;;;;29.02;15.31;101753.56;4955688;28;20061;-76
2022/05/22 08:04:45;;;;;;;2.80;0.33;;;;;;;30.26;13.68;101747.34;4973851;28;20090;-77
2022/05/22 08:07:19;;;;;;;2.00;0.40;;;;;;;29.79;15.44;101745.34;4957471;28;20286;-76
2022/05/22 08:09:57;;;;;;;3.50;0.50;;;;;;;30.93;13.89;101740.75;4963923;28;20086;-79
2022/05/22 08:12:24;;;;;;;2.45;0.63;;;;;;;30.88;15.14;101741.28;4972307;28;20771;-79
2022/05/22 08:14:55;;;;;;;2.00;0.22;;;;;;;30.11;15.08;101749.03;4971396;28;20031;-78
2022/05/22 08:17:21;;;;;;;3.20;0.52;;;;;;;27.90;16.13;101747.13;4960510;28;20066;-78
2022/05/22 08:19:51;;;;;;;2.00;0.28;;;;;;;25.75;18.68;101745.44;4961504;28;20077;-79
2022/05/22 08:22:23;;;;;;;2.30;0.45;;;;;;;22.81;21.73;101754.22;4970950;28;20069;-77
2022/05/22 08:25:18;;;;;;;2.30;0.70;;;;;;;21.70;22.52;101757.22;4962327;28;20031;-79
2022/05/22 08:27:44;;;;;;;3.47;0.40;;;;;;;20.64;24.49;101759.41;4972973;28;20035;-78
2022/05/22 08:30:14;;;;;;;1.30;0.20;;;;;;;20.47;25.80;101755.25;4945266;28;20035;-78
2022/05/22 08:32:44;;;;;;;1.73;0.30;;;;;;;22.98;22.85;101752.84;4973375;28;20139;-78
2022/05/22 08:35:15;;;;;;;4.30;0.40;;;;;;;24.26;19.34;101742.44;4956765;28;21413;-78
2022/05/22 08:37:41;;;;;;;3.40;0.30;;;;;;;23.52;20.07;101746.75;4969337;28;20046;-79
2022/05/22 08:40:10;;;;;;;5.53;0.22;;;;;;;21.95;21.35;101747.41;4960388;28;20401;-78
2022/05/22 08:42:41;;;;;;;1.63;0.47;;;;;;;23.76;20.86;101748.38;4959606;28;20054;-79
2022/05/22 08:45:14;;;;;;;4.57;0.10;;;;;;;25.79;18.28;101747.69;4950139;28;20332;-78
2022/05/22 08:48:06;;;;;;;2.42;0.20;;;;;;;27.08;17.84;101740.06;4975551;28;20505;-79
2022/05/22 08:50:35;;;;;;;2.08;0.43;;;;;;;28.85;15.66;101738.34;4971865;28;20141;-80
2022/05/22 08:53:04;;;;;;;1.73;0.32;;;;;;;25.88;17.40;101746.81;4954536;28;20042;-79
2022/05/22 09:01:38;;;;;;;0.98;0.20;;;;;;;27.80;16.14;101743.69;4960761;28;20043;-80
2022/05/22 09:04:03;;;;;;;2.95;0.20;;;;;;;27.36;16.82;101737.34;4955786;28;20604;-79
2022/05/22 09:07:02;;;;;;;1.77;0.35;;;;;;;28.29;15.50;101725.25;4970418;28;20038;-79
2022/05/22 09:09:31;;;;;;;3.08;0.20;;;;;;;28.17;15.38;101725.72;4952272;28;20035;-82
2022/05/22 09:12:08;;;;;;;;;;;;;;;25.61;17.82;101733.31;4971505;28;20039;-78
2022/05/22 09:14:44;;;;;;;2.55;0.30;;;;;;;22.20;21.33;101732.28;4957054;28;20413;-78
2022/05/22 09:17:17;;;;;;;2.53;0.93;;;;;;;20.27;24.21;101734.53;4948320;28;20508;-77
2022/05/22 09:19:51;;;;;;;2.42;0.30;;;;;;;19.70;24.29;101741.78;4968293;28;20039;-77
2022/05/22 09:22:30;;;;;;;1.17;0.30;;;;;;;19.80;24.89;101734.06;4960535;28;20612;-76
2022/05/22 09:25:31;;;;;;;0.40;0.10;;;;;;;22.54;22.34;101727.88;4974989;28;20359;-79
2022/05/22 09:28:35;;;;;;;1.23;0.10;;;;;;;24.10;20.43;101724.19;4962838;28;20039;-78
2022/05/22 09:31:07;;;;;;;3.10;0.22;;;;;;;24.17;18.49;101722.72;4954736;28;20528;-77
2022/05/22 09:33:58;;;;;;;1.92;0.32;;;;;;;24.36;20.81;101708.63;4966435;28;20047;-79
2022/05/22 09:36:41;;;;;;;2.78;0.28;;;;;;;23.54;20.64;101714.59;4977176;28;20035;-75
2022/05/22 09:39:28;;;;;;;2.65;0.10;;;;;;;22.62;20.21;101713.94;4971619;28;20114;-78
2022/05/22 09:41:59;;;;;;;2.35;0.30;;;;;;;21.46;22.56;101709.28;4967370;28;20031;-77
2022/05/22 09:44:50;;;;;;;3.08;0.20;;;;;;;20.88;23.86;101709.03;4961962;28;20050;-82
2022/05/22 09:48:08;;;;;;;2.15;0.20;;;;;;;21.03;23.44;101706.25;4967159;28;20058;-76
2022/05/22 09:50:58;;;;;;;5.15;0.30;;;;;;;20.63;23.01;101709.03;4924465;28;20086;-76
2022/05/22 09:53:25;;;;;;;1.65;0.20;;;;;;;20.44;25.08;101715.66;4944710;28;20094;-76
2022/05/22 09:55:51;;;;;;;3.10;0.95;;;;;;;20.16;24.68;101719.28;4971746;28;20034;-77
2022/05/22 09:58:35;;;;;;;1.15;0.10;;;;;;;19.76;26.22;101718.44;4952099;28;20102;-77
2022/05/22 10:01:07;;;;;;;1.17;0.45;;;;;;;19.99;25.41;101719.56;4951057;28;20035;-78
2022/05/22 10:03:51;;;;;;;;;;;;;;;20.06;25.15;101720.84;4962590;28;20039;-79
2022/05/22 10:06:46;;;;;;;5.03;0.43;;;;;;;20.23;24.98;101720.59;4949089;28;19964;-78
2022/05/22 10:09:44;;;;;;;2.08;0.30;;;;;;;19.78;25.04;101719.19;4968205;28;20073;-76
2022/05/22 10:12:28;;;;;;;6.22;0.63;;;;;;;19.40;26.05;101717.22;4967481;28;20065;-77
2022/05/22 10:15:25;;;;;;;5.15;0.10;;;;;;;19.83;26.21;101719.75;4972455;28;20043;-78
2022/05/22 10:18:06;;;;;;;1.80;0.20;;;;;;;21.54;24.90;101708.78;4968089;28;20632;-76
2022/05/22 10:20:53;;;;;;;2.00;0.32;;;;;;;21.86;23.32;101705.53;4964508;28;20054;-78
2022/05/22 10:23:37;;;;;;;1.95;0.10;;;;;;;21.73;23.87;101702.94;4962724;28;20047;-76
2022/05/22 10:26:28;;;;;;;1.10;0.20;;;;;;;20.09;24.14;101704.75;4956072;28;20026;-76
2022/05/22 10:28:58;;;;;;;3.42;0.30;;;;;;;19.61;24.99;101693.78;4952741;28;20043;-77
2022/05/22 10:31:40;;;;;;;1.83;0.20;;;;;;;20.57;25.81;101693.53;4939588;28;20035;-79
2022/05/22 10:34:19;;;;;;;5.70;1.48;;;;;;;20.75;24.63;101697.53;4961178;28;20051;-77
2022/05/22 10:36:52;;;;;;;2.38;0.30;;;;;;;20.77;24.21;101695.63;4960491;28;20752;-77
2022/05/22 10:39:19;;;;;;;2.08;0.20;;;;;;;20.71;23.57;101690.78;4963597;28;20039;-76
2022/05/22 10:44:53;;;;;;;0.95;0.10;;;;;;;20.59;24.86;101687.16;4942921;28;20062;-75
2022/05/22 10:47:33;;;;;;;2.85;0.32;;;;;;;20.05;23.97;101688.16;4944718;28;20062;-77
2022/05/22 10:50:01;;;;;;;2.28;0.50;;;;;;;20.21;25.84;101681.84;4958505;28;20062;-77
2022/05/22 10:52:33;;;;;;;1.90;0.20;;;;;;;19.30;25.72;101680.69;4946339;28;20062;-76
2022/05/22 10:55:01;;;;;;;5.43;0.20;;;;;;;19.32;25.97;101671.78;4959199;28;20505;-77
2022/05/22 10:57:31;;;;;;;1.70;0.22;;;;;;;19.08;27.60;101675.09;4955485;28;20105;-77
2022/05/22 11:00:12;;;;;;;4.10;0.20;;;;;;;19.31;27.11;101670.94;4945522;28;20035;-77
2022/05/22 11:02:38;;;;;;;2.30;0.10;;;;;;;19.73;26.22;101666.47;4927468;28;20047;-78
2022/05/22 11:05:18;;;;;;;2.63;0.22;;;;;;;20.87;24.83;101664.00;4942361;28;20038;-78
2022/05/22 11:07:51;;;;;;;5.05;0.20;;;;;;;22.09;22.37;101666.53;4961911;28;20537;-77
2022/05/22 11:10:40;;;;;;;1.88;0.20;;;;;;;22.54;22.78;101654.13;4954750;28;20050;-77
2022/05/22 11:13:09;;;;;;;1.73;0.50;;;;;;;22.55;22.68;101655.81;4952606;28;20050;-77
2022/05/22 11:15:42;;;;;;;3.13;0.32;;;;;;;22.29;23.18;101655.22;4958642;28;20059;-76
2022/05/22 11:18:19;;;;;;;1.75;0.20;;;;;;;22.92;23.71;101658.25;4952606;28;20097;-77
2022/05/22 11:20:50;;;;;;;2.78;0.22;;;;;;;22.26;23.22;101652.78;4969346;28;20035;-78
2022/05/22 11:23:28;;;;;;;3.45;0.35;;;;;;;21.49;23.00;101655.06;4952763;28;20150;-78
2022/05/22 11:26:21;;;;;;;2.60;0.20;;;;;;;21.90;22.40;101648.44;4955782;28;20038;-77
2022/05/22 11:29:12;;;;;;;3.00;0.30;;;;;;;22.29;23.05;101643.69;4953248;28;20046;-78
2022/05/22 11:31:37;;;;;;;6.97;0.32;;;;;;;22.55;23.57;101641.66;4967912;28;20321;-77
2022/05/22 11:34:35;;;;;;;2.95;0.20;;;;;;;22.96;22.09;101635.72;4956768;28;20047;-76
2022/05/22 11:37:16;;;;;;;3.75;0.45;;;;;;;23.31;21.36;101641.81;4928580;28;20050;-78
2022/05/22 11:39:59;;;;;;;4.00;0.57;;;;;;;23.95;20.12;101631.09;4967309;28;20501;-76
2022/05/22 11:42:34;;;;;;;3.20;1.00;;;;;;;23.23;21.08;101630.88;4956549;28;20403;-76
2022/05/22 11:45:21;;;;;;;2.55;0.25;;;;;;;22.69;22.23;101644.09;4954543;28;20466;-77
2022/05/22 11:48:05;;;;;;;1.17;0.20;;;;;;;21.17;23.90;101642.31;4960878;28;20096;-77
2022/05/22 11:50:46;;;;;;;3.40;0.20;;;;;;;20.46;24.77;101628.78;4951942;28;20039;-78
2022/05/22 11:53:27;;;;;;;1.27;0.10;;;;;;;20.00;26.07;101637.22;4954873;28;20125;-77
2022/05/22 11:56:13;;;;;;;5.00;3.00;;;;;;;19.95;25.63;101628.75;4953817;28;20132;-78
2022/05/22 11:58:44;;;;;;;1.65;0.30;;;;;;;19.96;25.67;101622.47;4956600;28;20066;-76
2022/05/22 12:01:23;;;;;;;5.30;0.77;;;;;;;19.84;25.47;101618.00;4960898;28;21062;-78
2022/05/22 12:04:26;;;;;;;3.17;0.73;;;;;;;19.37;26.39;101622.84;4957696;28;20054;-77
2022/05/22 12:07:13;;;;;;;1.75;0.30;;;;;;;19.22;26.50;101623.84;4968067;28;20043;-75
2022/05/22 12:09:46;;;;;;;2.47;0.55;;;;;;;18.95;26.98;101627.31;4943504;28;20094;-76
2022/05/22 12:12:59;;;;;;;1.42;0.20;;;;;;;19.49;26.66;101622.03;4959066;28;20026;-78
2022/05/22 12:15:35;;;;;;;2.17;0.47;;;;;;;19.52;25.55;101615.66;4918670;28;20537;-76
2022/05/22 12:18:00;;;;;;;5.03;1.05;;;;;;;19.01;26.36;101610.16;4953902;28;20055;-76
2022/05/22 12:20:33;;;;;;;2.88;0.57;;;;;;;18.98;26.71;101621.81;4976310;28;20157;-80
2022/05/22 12:23:21;;;;;;;0.88;0.20;;;;;;;18.73;26.98;101611.91;4970963;28;20042;-78